createdAt,value
2022-12-01T00:01:09.977Z,98526.91
2022-12-01T00:02:41.630Z,98513.94
2022-12-01T00:04:13.259Z,98518.34
2022-12-01T00:05:44.808Z,98514.91
2022-12-01T00:07:16.389Z,98520.53
2022-12-01T00:09:08.773Z,98518.88
2022-12-01T00:10:40.397Z,98517.22
2022-12-01T00:12:11.924Z,98515.69
2022-12-01T00:13:43.456Z,98518.78
2022-12-01T00:15:15.076Z,98516.09
2022-12-01T00:16:46.777Z,98515.75
2022-12-01T00:18:18.429Z,98514.63
2022-12-01T00:19:50.189Z,98516.00
2022-12-01T00:21:24.040Z,98509.78
2022-12-01T00:22:55.774Z,98512.13
2022-12-01T00:24:27.334Z,98513.69
2022-12-01T00:26:05.622Z,98510.72
2022-12-01T00:27:37.206Z,98513.75
2022-12-01T00:29:09.228Z,98512.72
2022-12-01T00:30:40.774Z,98516.47
2022-12-01T00:32:12.738Z,98514.19
2022-12-01T00:33:44.280Z,98521.97
2022-12-01T00:35:17.354Z,98514.19
2022-12-01T00:36:49.079Z,98522.81
2022-12-01T00:38:20.659Z,98520.22
2022-12-01T00:39:52.294Z,98520.72
2022-12-01T00:41:25.405Z,98512.94
2022-12-01T00:42:56.946Z,98521.75
2022-12-01T00:44:28.453Z,98515.88
2022-12-01T00:46:01.435Z,98514.19
2022-12-01T00:47:33.012Z,98513.28
2022-12-01T00:49:04.579Z,98521.25
2022-12-01T00:50:36.168Z,98513.03
2022-12-01T00:52:08.324Z,98518.13
2022-12-01T00:53:39.917Z,98514.69
2022-12-01T00:55:11.511Z,98513.88
2022-12-01T00:56:43.096Z,98519.53
2022-12-01T00:58:14.700Z,98513.28
2022-12-01T00:59:47.229Z,98523.22
2022-12-01T01:01:19.569Z,98518.88
2022-12-01T01:02:51.159Z,98523.84
2022-12-01T01:04:22.691Z,98517.63
2022-12-01T01:05:54.394Z,98516.06
2022-12-01T01:07:25.991Z,98519.88
2022-12-01T01:08:58.742Z,98521.44
2022-12-01T01:10:30.389Z,98517.28
2022-12-01T01:12:01.950Z,98520.72
2022-12-01T01:13:34.056Z,98517.78
2022-12-01T01:15:07.049Z,98518.13
2022-12-01T01:16:38.598Z,98523.88
2022-12-01T01:18:12.043Z,98523.09
2022-12-01T01:19:43.543Z,98523.19
2022-12-01T01:21:17.612Z,98524.03
2022-12-01T01:22:49.275Z,98523.22
2022-12-01T01:24:20.839Z,98527.16
2022-12-01T01:25:52.543Z,98520.22
2022-12-01T01:27:24.420Z,98526.09
2022-12-01T01:29:01.775Z,98526.09
2022-12-01T01:30:33.357Z,98524.88
2022-12-01T01:32:05.314Z,98527.06
2022-12-01T01:33:37.221Z,98527.59
2022-12-01T01:35:09.281Z,98531.00
2022-12-01T01:36:40.883Z,98528.41
2022-12-01T01:38:12.461Z,98528.94
2022-12-01T01:39:44.017Z,98521.59
2022-12-01T01:41:15.648Z,98529.97
2022-12-01T01:42:47.238Z,98523.22
2022-12-01T01:44:49.037Z,98526.44
2022-12-01T01:46:32.076Z,98524.03
2022-12-01T01:48:04.466Z,98531.81
2022-12-01T01:49:36.282Z,98527.81
2022-12-01T01:51:09.173Z,98523.94
2022-12-01T01:52:45.929Z,98529.47
2022-12-01T01:54:34.506Z,98527.59
2022-12-01T01:56:07.403Z,98525.59
2022-12-01T01:57:39.436Z,98522.19
2022-12-01T01:59:15.116Z,98529.03
2022-12-01T02:00:47.262Z,98525.00
2022-12-01T02:02:18.848Z,98537.63
2022-12-01T02:03:53.705Z,98522.41
2022-12-01T02:05:32.151Z,98527.19
2022-12-01T02:07:04.760Z,98528.63
2022-12-01T02:08:38.095Z,98525.41
2022-12-01T02:10:13.194Z,98526.78
2022-12-01T02:12:04.941Z,98526.97
2022-12-01T02:13:55.187Z,98529.28
2022-12-01T02:15:51.512Z,98528.56
2022-12-01T02:17:23.043Z,98515.59
2022-12-01T02:19:31.783Z,98517.88
2022-12-01T02:21:24.498Z,98522.97
2022-12-01T02:23:33.482Z,98516.56
2022-12-01T02:25:29.067Z,98514.66
2022-12-01T02:27:25.329Z,98517.38
2022-12-01T02:29:50.889Z,98511.97
2022-12-01T02:31:25.212Z,98509.38
2022-12-01T02:33:23.280Z,98510.94
2022-12-01T02:35:06.596Z,98511.97
2022-12-01T02:36:42.423Z,98513.72
2022-12-01T02:38:31.312Z,98509.63
2022-12-01T02:40:24.687Z,98515.84
2022-12-01T02:42:11.598Z,98507.03
2022-12-01T02:43:52.188Z,98515.09
2022-12-01T02:45:49.712Z,98518.41
2022-12-01T02:47:21.675Z,98512.63
2022-12-01T02:48:55.837Z,98515.44
2022-12-01T02:50:29.923Z,98518.13
2022-12-01T02:52:04.827Z,98523.41
2022-12-01T02:53:36.730Z,98517.94
2022-12-01T02:55:08.842Z,98518.09
2022-12-01T02:56:43.474Z,98518.75
2022-12-01T02:58:15.355Z,98517.94
2022-12-01T02:59:54.287Z,98513.34
2022-12-01T03:01:38.226Z,98519.16
2022-12-01T03:03:26.599Z,98521.41
2022-12-01T03:05:26.394Z,98519.16
2022-12-01T03:07:54.297Z,98514.81
2022-12-01T03:09:34.044Z,98523.09
2022-12-01T03:11:05.717Z,98521.22
2022-12-01T03:12:58.955Z,98521.84
2022-12-01T03:14:37.726Z,98509.38
2022-12-01T03:16:30.694Z,98503.91
2022-12-01T03:18:23.068Z,98514.38
2022-12-01T03:20:19.475Z,98511.78
2022-12-01T03:22:01.722Z,98514.91
2022-12-01T03:23:37.221Z,98517.28
2022-12-01T03:25:10.899Z,98506.94
2022-12-01T03:26:47.417Z,98510.84
2022-12-01T03:28:28.745Z,98511.53
2022-12-01T03:30:01.987Z,98509.97
2022-12-01T03:31:40.721Z,98512.31
2022-12-01T03:33:19.210Z,98511.38
2022-12-01T03:35:04.767Z,98503.94
2022-12-01T03:36:44.733Z,98507.28
2022-12-01T03:38:24.130Z,98504.78
2022-12-01T03:40:00.487Z,98510.16
2022-12-01T03:41:39.587Z,98510.16
2022-12-01T03:43:16.516Z,98508.50
2022-12-01T03:44:53.547Z,98509.22
2022-12-01T03:46:51.361Z,98509.03
2022-12-01T03:48:24.273Z,98511.81
2022-12-01T03:49:56.525Z,98509.44
2022-12-01T03:51:55.330Z,98512.94
2022-12-01T03:53:32.985Z,98513.38
2022-12-01T03:55:18.955Z,98517.94
2022-12-01T03:56:56.377Z,98509.47
2022-12-01T03:58:34.337Z,98517.53
2022-12-01T04:00:07.960Z,98519.94
2022-12-01T04:01:45.346Z,98506.88
2022-12-01T04:03:20.135Z,98514.50
2022-12-01T04:04:51.897Z,98510.28
2022-12-01T04:06:23.474Z,98506.75
2022-12-01T04:07:55.375Z,98514.84
2022-12-01T04:09:26.977Z,98513.78
2022-12-01T04:10:58.590Z,98514.31
2022-12-01T04:12:30.487Z,98521.25
2022-12-01T04:14:02.084Z,98523.25
2022-12-01T04:15:33.590Z,98516.41
2022-12-01T04:17:05.222Z,98515.19
2022-12-01T04:18:36.776Z,98520.75
2022-12-01T04:20:08.645Z,98516.59
2022-12-01T04:21:40.274Z,98519.19
2022-12-01T04:23:31.878Z,98519.00
2022-12-01T04:25:05.030Z,98514.91
2022-12-01T04:26:37.390Z,98516.81
2022-12-01T04:28:08.996Z,98525.84
2022-12-01T04:29:40.658Z,98522.09
2022-12-01T04:31:12.222Z,98513.16
2022-12-01T04:32:44.269Z,98519.88
2022-12-01T04:34:15.928Z,98521.25
2022-12-01T04:35:57.045Z,98517.94
2022-12-01T04:37:28.624Z,98521.06
2022-12-01T04:39:01.305Z,98523.53
2022-12-01T04:40:32.875Z,98523.16
2022-12-01T04:42:05.162Z,98527.41
2022-12-01T04:43:37.092Z,98521.59
2022-12-01T04:45:09.428Z,98527.59
2022-12-01T04:46:41.296Z,98524.06
2022-12-01T04:48:12.924Z,98530.31
2022-12-01T04:49:44.522Z,98528.44
2022-12-01T04:51:16.242Z,98524.19
2022-12-01T04:52:47.964Z,98524.41
2022-12-01T04:54:19.693Z,98526.59
2022-12-01T04:55:51.320Z,98527.41
2022-12-01T04:57:22.931Z,98526.78
2022-12-01T04:58:54.660Z,98528.44
2022-12-01T05:00:26.266Z,98530.84
2022-12-01T05:01:58.070Z,98536.72
2022-12-01T05:03:29.746Z,98530.09
2022-12-01T05:05:01.342Z,98527.63
2022-12-01T05:06:32.961Z,98531.97
2022-12-01T05:08:04.711Z,98527.84
2022-12-01T05:09:36.478Z,98530.22
2022-12-01T05:11:11.315Z,98528.84
2022-12-01T05:12:42.876Z,98535.38
2022-12-01T05:14:14.470Z,98532.78
2022-12-01T05:15:46.065Z,98532.19
2022-12-01T05:17:17.648Z,98529.38
2022-12-01T05:18:51.190Z,98530.84
2022-12-01T05:20:43.889Z,98531.66
2022-12-01T05:22:15.664Z,98531.78
2022-12-01T05:23:47.370Z,98526.69
2022-12-01T05:25:19.285Z,98524.63
2022-12-01T05:26:50.912Z,98529.09
2022-12-01T05:28:24.608Z,98533.09
2022-12-01T05:29:56.300Z,98523.66
2022-12-01T05:31:27.927Z,98534.13
2022-12-01T05:32:59.756Z,98535.09
2022-12-01T05:34:31.391Z,98527.91
2022-12-01T05:36:03.062Z,98533.00
2022-12-01T05:37:34.718Z,98530.72
2022-12-01T05:39:06.348Z,98533.13
2022-12-01T05:40:38.232Z,98530.63
2022-12-01T05:42:09.942Z,98532.28
2022-12-01T05:43:41.832Z,98531.13
2022-12-01T05:45:13.453Z,98527.72
2022-12-01T05:46:45.050Z,98525.13
2022-12-01T05:48:17.860Z,98528.25
2022-12-01T05:49:49.682Z,98531.66
2022-12-01T05:51:21.490Z,98531.66
2022-12-01T05:52:53.322Z,98533.72
2022-12-01T05:54:24.989Z,98532.28
2022-12-01T05:55:56.562Z,98533.94
2022-12-01T05:57:28.331Z,98534.25
2022-12-01T05:59:00.056Z,98535.38
2022-12-01T06:00:31.807Z,98537.97
2022-12-01T06:02:03.541Z,98532.28
2022-12-01T06:03:35.166Z,98527.31
2022-12-01T06:05:07.868Z,98540.88
2022-12-01T06:06:39.484Z,98537.56
2022-12-01T06:08:11.308Z,98542.94
2022-12-01T06:09:42.920Z,98538.31
2022-12-01T06:11:14.501Z,98530.31
2022-12-01T06:12:46.135Z,98530.22
2022-12-01T06:14:17.843Z,98533.44
2022-12-01T06:15:58.914Z,98541.72
2022-12-01T06:17:32.691Z,98545.84
2022-12-01T06:19:07.425Z,98538.19
2022-12-01T06:20:39.082Z,98540.66
2022-12-01T06:22:10.956Z,98533.31
2022-12-01T06:23:42.570Z,98537.56
2022-12-01T06:25:14.114Z,98536.53
2022-12-01T06:26:45.651Z,98542.94
2022-12-01T06:28:17.707Z,98543.66
2022-12-01T06:29:49.641Z,98545.13
2022-12-01T06:31:21.585Z,98544.41
2022-12-01T06:32:53.547Z,98545.97
2022-12-01T06:34:25.151Z,98549.06
2022-12-01T06:36:01.791Z,98558.47
2022-12-01T06:37:33.523Z,98552.38
2022-12-01T06:39:12.482Z,98545.53
2022-12-01T06:40:45.094Z,98552.38
2022-12-01T06:42:16.702Z,98549.69
2022-12-01T06:43:48.289Z,98547.59
2022-12-01T06:45:19.849Z,98551.16
2022-12-01T06:46:52.943Z,98559.84
2022-12-01T06:48:24.614Z,98557.53
2022-12-01T06:49:56.234Z,98557.34
2022-12-01T06:51:28.531Z,98569.47
2022-12-01T06:53:00.082Z,98566.22
2022-12-01T06:54:31.848Z,98558.69
2022-12-01T06:56:04.731Z,98560.44
2022-12-01T06:57:36.877Z,98556.72
2022-12-01T06:59:09.127Z,98564.88
2022-12-01T07:00:41.058Z,98565.63
2022-12-01T07:02:12.867Z,98563.13
2022-12-01T07:03:48.908Z,98568.84
2022-12-01T07:05:20.525Z,98567.28
2022-12-01T07:06:52.151Z,98568.75
2022-12-01T07:08:23.966Z,98579.09
2022-12-01T07:09:55.701Z,98568.75
2022-12-01T07:11:27.323Z,98582.63
2022-12-01T07:12:58.879Z,98575.56
2022-12-01T07:14:31.703Z,98578.03
2022-12-01T07:16:04.120Z,98585.22
2022-12-01T07:17:35.868Z,98579.19
2022-12-01T07:19:07.729Z,98584.06
2022-12-01T07:20:39.429Z,98585.00
2022-12-01T07:22:11.110Z,98586.66
2022-12-01T07:23:43.167Z,98584.56
2022-12-01T07:25:14.979Z,98592.44
2022-12-01T07:26:46.719Z,98592.13
2022-12-01T07:28:18.365Z,98602.28
2022-12-01T07:29:50.477Z,98594.19
2022-12-01T07:31:22.525Z,98592.44
2022-12-01T07:32:54.250Z,98593.06
2022-12-01T07:34:26.051Z,98597.19
2022-12-01T07:35:58.038Z,98595.53
2022-12-01T07:37:29.610Z,98595.34
2022-12-01T07:39:07.527Z,98592.75
2022-12-01T07:40:39.091Z,98589.16
2022-12-01T07:42:10.698Z,98596.91
2022-12-01T07:43:43.093Z,98591.59
2022-12-01T07:45:14.975Z,98589.25
2022-12-01T07:46:46.808Z,98593.25
2022-12-01T07:48:18.496Z,98595.75
2022-12-01T07:49:50.258Z,98592.13
2022-12-01T07:51:23.848Z,98596.91
2022-12-01T07:52:55.479Z,98593.91
2022-12-01T07:54:27.196Z,98594.50
2022-12-01T07:56:02.022Z,98586.56
2022-12-01T07:57:35.993Z,98596.59
2022-12-01T07:59:08.125Z,98598.97
2022-12-01T08:00:39.935Z,98602.28
2022-12-01T08:02:12.601Z,98603.94
2022-12-01T08:03:52.264Z,98605.09
2022-12-01T08:05:23.937Z,98609.22
2022-12-01T08:06:56.045Z,98611.94
2022-12-01T08:08:28.049Z,98610.78
2022-12-01T08:09:59.663Z,98606.53
2022-12-01T08:11:31.493Z,98607.16
2022-12-01T08:13:03.794Z,98603.75
2022-12-01T08:14:35.751Z,98602.41
2022-12-01T08:16:10.173Z,98603.09
2022-12-01T08:17:44.824Z,98604.56
2022-12-01T08:19:16.547Z,98608.00
2022-12-01T08:20:48.153Z,98611.19
2022-12-01T08:22:19.691Z,98607.66
2022-12-01T08:23:55.954Z,98601.47
2022-12-01T08:25:28.621Z,98594.53
2022-12-01T08:27:00.201Z,98598.84
2022-12-01T08:28:32.044Z,98592.94
2022-12-01T08:30:04.382Z,98593.16
2022-12-01T08:31:38.018Z,98596.69
2022-12-01T08:33:09.659Z,98598.44
2022-12-01T08:34:41.449Z,98599.81
2022-12-01T08:36:13.330Z,98605.59
2022-12-01T08:37:44.938Z,98603.31
2022-12-01T08:39:16.767Z,98595.75
2022-12-01T08:40:48.279Z,98604.66
2022-12-01T08:42:20.985Z,98608.59
2022-12-01T08:44:00.988Z,98595.13
2022-12-01T08:45:33.395Z,98605.59
2022-12-01T08:47:04.998Z,98609.22
2022-12-01T08:48:36.667Z,98611.19
2022-12-01T08:50:08.584Z,98612.75
2022-12-01T08:51:40.325Z,98611.91
2022-12-01T08:53:11.905Z,98617.72
2022-12-01T08:54:43.463Z,98620.19
2022-12-01T08:56:26.980Z,98616.78
2022-12-01T08:57:58.532Z,98619.06
2022-12-01T08:59:30.413Z,98622.38
2022-12-01T09:01:04.405Z,98621.13
2022-12-01T09:02:36.184Z,98620.69
2022-12-01T09:04:10.408Z,98619.78
2022-12-01T09:05:41.959Z,98624.66
2022-12-01T09:07:19.012Z,98627.75
2022-12-01T09:08:53.057Z,98628.09
2022-12-01T09:10:24.611Z,98627.34
2022-12-01T09:11:56.283Z,98621.25
2022-12-01T09:13:28.577Z,98622.56
2022-12-01T09:15:00.274Z,98628.28
2022-12-01T09:16:32.121Z,98636.56
2022-12-01T09:18:03.965Z,98634.38
2022-12-01T09:19:35.821Z,98641.13
2022-12-01T09:21:14.275Z,98640.81
2022-12-01T09:22:45.864Z,98637.81
2022-12-01T09:24:17.572Z,98637.81
2022-12-01T09:25:50.597Z,98633.88
2022-12-01T09:27:22.198Z,98632.31
2022-12-01T09:29:02.699Z,98634.59
2022-12-01T09:30:37.617Z,98634.19
2022-12-01T09:32:09.235Z,98632.75
2022-12-01T09:33:41.036Z,98638.94
2022-12-01T09:35:12.631Z,98634.06
2022-12-01T09:36:44.817Z,98636.56
2022-12-01T09:38:16.420Z,98636.56
2022-12-01T09:39:48.383Z,98637.63
2022-12-01T09:41:25.939Z,98630.34
2022-12-01T09:43:00.823Z,98634.78
2022-12-01T09:44:43.854Z,98633.03
2022-12-01T09:46:28.728Z,98624.41
2022-12-01T09:48:03.681Z,98625.75
2022-12-01T09:49:56.828Z,98624.53
2022-12-01T09:51:29.911Z,98625.88
2022-12-01T09:53:06.783Z,98620.25
2022-12-01T09:54:38.424Z,98621.72
2022-12-01T09:56:20.725Z,98627.84
2022-12-01T09:57:54.935Z,98625.88
2022-12-01T09:59:32.669Z,98617.88
2022-12-01T10:01:04.381Z,98619.34
2022-12-01T10:02:41.191Z,98615.47
2022-12-01T10:04:35.436Z,98610.84
2022-12-01T10:06:27.081Z,98607.94
2022-12-01T10:08:02.818Z,98612.09
2022-12-01T10:09:55.141Z,98615.72
2022-12-01T10:11:40.736Z,98607.75
2022-12-01T10:13:23.709Z,98606.91
2022-12-01T10:15:24.696Z,98607.22
2022-12-01T10:17:05.264Z,98601.25
2022-12-01T10:19:01.537Z,98601.25
2022-12-01T10:21:09.215Z,98601.88
2022-12-01T10:23:06.983Z,98593.72
2022-12-01T10:24:55.807Z,98595.56
2022-12-01T10:26:50.487Z,98591.13
2022-12-01T10:28:22.058Z,98595.53
2022-12-01T10:30:03.121Z,98590.25
2022-12-01T10:31:57.882Z,98583.75
2022-12-01T10:33:40.942Z,98583.41
2022-12-01T10:35:16.621Z,98586.00
2022-12-01T10:36:48.674Z,98587.06
2022-12-01T10:38:30.580Z,98586.63
2022-12-01T10:40:02.474Z,98583.31
2022-12-01T10:41:37.782Z,98590.06
2022-12-01T10:43:10.663Z,98585.84
2022-12-01T10:44:43.195Z,98579.50
2022-12-01T10:46:48.119Z,98588.38
2022-12-01T10:48:22.197Z,98584.09
2022-12-01T10:49:53.890Z,98579.44
2022-12-01T10:51:27.249Z,98580.59
2022-12-01T10:52:58.847Z,98576.50
2022-12-01T10:54:36.636Z,98578.91
2022-12-01T10:56:21.974Z,98579.59
2022-12-01T10:58:00.855Z,98583.19
2022-12-01T10:59:51.819Z,98589.41
2022-12-01T11:01:31.943Z,98576.25
2022-12-01T11:03:04.821Z,98577.47
2022-12-01T11:04:45.023Z,98575.88
2022-12-01T11:06:22.522Z,98567.97
2022-12-01T11:07:54.993Z,98568.78
2022-12-01T11:09:30.817Z,98562.34
2022-12-01T11:11:02.790Z,98563.19
2022-12-01T11:12:34.863Z,98564.66
2022-12-01T11:14:18.596Z,98564.66
2022-12-01T11:15:56.071Z,98563.34
2022-12-01T11:17:33.159Z,98563.44
2022-12-01T11:19:13.791Z,98561.88
2022-12-01T11:20:45.484Z,98555.78
2022-12-01T11:22:23.298Z,98562.19
2022-12-01T11:23:56.352Z,98560.31
2022-12-01T11:25:28.160Z,98560.50
2022-12-01T11:27:00.919Z,98557.28
2022-12-01T11:28:34.486Z,98552.69
2022-12-01T11:30:20.240Z,98553.06
2022-12-01T11:31:53.135Z,98554.91
2022-12-01T11:33:25.676Z,98550.66
2022-12-01T11:35:01.727Z,98550.25
2022-12-01T11:36:33.168Z,98550.34
2022-12-01T11:38:28.701Z,98559.22
2022-12-01T11:40:12.650Z,98554.72
2022-12-01T11:41:45.364Z,98552.94
2022-12-01T11:43:35.546Z,98550.34
2022-12-01T11:45:21.977Z,98545.25
2022-12-01T11:47:07.731Z,98547.50
2022-12-01T11:48:58.656Z,98547.66
2022-12-01T11:50:35.858Z,98546.34
2022-12-01T11:52:22.722Z,98548.50
2022-12-01T11:54:06.347Z,98540.91
2022-12-01T11:55:37.918Z,98542.94
2022-12-01T11:57:33.264Z,98548.63
2022-12-01T11:59:11.796Z,98544.59
2022-12-01T12:00:56.114Z,98550.28
2022-12-01T12:02:38.272Z,98542.38
2022-12-01T12:04:47.948Z,98542.97
2022-12-01T12:06:42.345Z,98541.50
2022-12-01T12:08:39.880Z,98541.53
2022-12-01T12:10:17.589Z,98536.84
2022-12-01T12:12:20.064Z,98533.84
2022-12-01T12:14:22.527Z,98539.28
2022-12-01T12:16:33.473Z,98540.63
2022-12-01T12:18:05.564Z,98541.50
2022-12-01T12:20:07.324Z,98538.69
2022-12-01T12:21:52.935Z,98542.75
2022-12-01T12:23:30.528Z,98540.06
2022-12-01T12:25:25.342Z,98537.09
2022-12-01T12:27:26.089Z,98539.56
2022-12-01T12:29:16.182Z,98532.28
2022-12-01T12:31:25.393Z,98532.78
2022-12-01T12:32:56.871Z,98533.41
2022-12-01T12:34:48.928Z,98533.28
2022-12-01T12:36:59.892Z,98525.38
2022-12-01T12:38:53.326Z,98525.53
2022-12-01T12:40:39.763Z,98530.34
2022-12-01T12:42:29.825Z,98529.31
2022-12-01T12:44:26.013Z,98526.00
2022-12-01T12:46:12.568Z,98525.75
2022-12-01T12:47:57.305Z,98526.59
2022-12-01T12:49:53.899Z,98520.38
2022-12-01T12:52:08.449Z,98514.63
2022-12-01T12:53:48.647Z,98520.66
2022-12-01T12:55:26.697Z,98521.56
2022-12-01T12:57:03.662Z,98515.94
2022-12-01T12:58:41.985Z,98522.59
2022-12-01T13:00:20.255Z,98517.97
2022-12-01T13:02:16.832Z,98516.38
2022-12-01T13:04:03.636Z,98522.25
2022-12-01T13:05:41.808Z,98528.34
2022-12-01T13:07:16.374Z,98524.63
2022-12-01T13:08:55.101Z,98525.34
2022-12-01T13:10:45.388Z,98523.25
2022-12-01T13:12:23.016Z,98526.09
2022-12-01T13:14:03.825Z,98518.72
2022-12-01T13:15:36.672Z,98517.56
2022-12-01T13:17:19.123Z,98517.16
2022-12-01T13:18:53.928Z,98516.72
2022-12-01T13:20:28.747Z,98517.16
2022-12-01T13:22:01.326Z,98512.88
2022-12-01T13:23:35.405Z,98516.09
2022-12-01T13:25:07.737Z,98510.44
2022-12-01T13:26:41.779Z,98513.63
2022-12-01T13:28:20.351Z,98504.19
2022-12-01T13:29:54.211Z,98510.94
2022-12-01T13:31:25.913Z,98511.03
2022-12-01T13:33:03.980Z,98510.22
2022-12-01T13:34:43.557Z,98508.50
2022-12-01T13:36:45.155Z,98510.91
2022-12-01T13:38:24.771Z,98505.81
2022-12-01T13:40:08.824Z,98510.50
2022-12-01T13:41:42.966Z,98510.63
2022-12-01T13:43:21.615Z,98510.28
2022-12-01T13:44:59.995Z,98508.78
2022-12-01T13:47:03.095Z,98504.19
2022-12-01T13:48:37.614Z,98503.31
2022-12-01T13:50:46.050Z,98499.13
2022-12-01T13:52:25.998Z,98501.38
2022-12-01T13:54:25.873Z,98507.19
2022-12-01T13:56:03.339Z,98502.00
2022-12-01T13:57:39.216Z,98493.19
2022-12-01T13:59:38.981Z,98494.13
2022-12-01T14:01:23.144Z,98496.72
2022-12-01T14:03:13.031Z,98501.56
2022-12-01T14:04:45.054Z,98501.47
2022-12-01T14:06:26.328Z,98505.25
2022-12-01T14:07:58.061Z,98505.97
2022-12-01T14:09:37.848Z,98508.34
2022-12-01T14:11:27.574Z,98504.81
2022-12-01T14:13:03.919Z,98503.41
2022-12-01T14:14:39.951Z,98506.69
2022-12-01T14:16:11.543Z,98503.41
2022-12-01T14:17:45.111Z,98510.06
2022-12-01T14:19:34.650Z,98506.25
2022-12-01T14:21:11.904Z,98509.44
2022-12-01T14:23:01.980Z,98509.97
2022-12-01T14:24:52.837Z,98508.78
2022-12-01T14:26:25.389Z,98504.78
2022-12-01T14:28:01.360Z,98506.97
2022-12-01T14:29:34.533Z,98506.75
2022-12-01T14:31:06.397Z,98512.31
2022-12-01T14:32:38.065Z,98503.59
2022-12-01T14:34:19.288Z,98503.66
2022-12-01T14:35:52.508Z,98508.63
2022-12-01T14:37:28.860Z,98508.31
2022-12-01T14:39:00.502Z,98507.38
2022-12-01T14:40:33.195Z,98501.47
2022-12-01T14:42:10.789Z,98510.56
2022-12-01T14:44:01.555Z,98511.22
2022-12-01T14:45:47.256Z,98510.28
2022-12-01T14:47:27.384Z,98510.91
2022-12-01T14:48:59.169Z,98517.50
2022-12-01T14:50:45.057Z,98514.63
2022-12-01T14:52:28.719Z,98508.41
2022-12-01T14:54:04.154Z,98503.66
2022-12-01T14:55:57.761Z,98510.63
2022-12-01T14:57:34.473Z,98508.75
2022-12-01T14:59:21.944Z,98507.91
2022-12-01T15:01:13.676Z,98510.28
2022-12-01T15:03:03.109Z,98511.47
2022-12-01T15:05:05.818Z,98509.34
2022-12-01T15:06:37.893Z,98500.84
2022-12-01T15:08:49.410Z,98514.44
2022-12-01T15:10:25.372Z,98508.84
2022-12-01T15:12:03.530Z,98513.75
2022-12-01T15:13:51.687Z,98512.00
2022-12-01T15:15:25.717Z,98514.34
2022-12-01T15:16:58.760Z,98516.84
2022-12-01T15:18:36.790Z,98508.97
2022-12-01T15:20:27.764Z,98508.97
2022-12-01T15:22:02.832Z,98506.97
2022-12-01T15:23:34.441Z,98505.81
2022-12-01T15:25:14.614Z,98504.16
2022-12-01T15:26:49.633Z,98500.38
2022-12-01T15:28:30.105Z,98504.44
2022-12-01T15:30:04.352Z,98506.31
2022-12-01T15:31:36.533Z,98508.06
2022-12-01T15:33:15.639Z,98509.81
2022-12-01T15:34:50.886Z,98506.41
2022-12-01T15:36:23.036Z,98515.38
2022-12-01T15:37:55.916Z,98511.56
2022-12-01T15:39:33.778Z,98506.94
2022-12-01T15:41:28.546Z,98511.00
2022-12-01T15:43:04.527Z,98515.66
2022-12-01T15:44:36.918Z,98511.75
2022-12-01T15:46:18.341Z,98516.94
2022-12-01T15:47:51.935Z,98509.38
2022-12-01T15:49:33.007Z,98509.69
2022-12-01T15:51:19.743Z,98506.38
2022-12-01T15:52:51.521Z,98510.72
2022-12-01T15:54:26.359Z,98511.44
2022-12-01T15:55:59.462Z,98511.72
2022-12-01T15:57:31.120Z,98511.84
2022-12-01T15:59:21.314Z,98515.34
2022-12-01T16:01:11.021Z,98509.78
2022-12-01T16:02:42.844Z,98519.75
2022-12-01T16:04:19.167Z,98507.47
2022-12-01T16:05:51.165Z,98508.63
2022-12-01T16:07:22.834Z,98510.50
2022-12-01T16:08:59.421Z,98513.09
2022-12-01T16:10:35.835Z,98512.66
2022-12-01T16:12:16.963Z,98516.91
2022-12-01T16:13:56.041Z,98514.88
2022-12-01T16:15:27.827Z,98512.97
2022-12-01T16:17:00.207Z,98514.63
2022-12-01T16:18:33.786Z,98508.47
2022-12-01T16:20:15.190Z,98515.53
2022-12-01T16:21:46.658Z,98513.13
2022-12-01T16:23:26.036Z,98512.72
2022-12-01T16:24:57.624Z,98510.34
2022-12-01T16:26:30.499Z,98499.75
2022-12-01T16:28:03.339Z,98506.72
2022-12-01T16:29:48.001Z,98508.22
2022-12-01T16:31:20.062Z,98505.97
2022-12-01T16:32:59.883Z,98502.34
2022-12-01T16:34:45.991Z,98504.72
2022-12-01T16:36:21.414Z,98510.72
2022-12-01T16:37:55.550Z,98511.44
2022-12-01T16:39:27.357Z,98503.66
2022-12-01T16:41:01.111Z,98509.78
2022-12-01T16:42:32.651Z,98509.69
2022-12-01T16:44:27.560Z,98513.09
2022-12-01T16:46:00.582Z,98510.50
2022-12-01T16:47:32.536Z,98511.56
2022-12-01T16:49:04.144Z,98514.88
2022-12-01T16:50:36.719Z,98509.69
2022-12-01T16:52:36.617Z,98514.03
2022-12-01T16:54:00.947Z,98509.88
2022-12-01T16:55:50.981Z,98507.41
2022-12-01T16:57:22.754Z,98517.19
2022-12-01T16:58:54.525Z,98507.25
2022-12-01T17:00:26.258Z,98507.19
2022-12-01T17:01:58.400Z,98508.41
2022-12-01T17:03:30.148Z,98511.75
2022-12-01T17:05:01.661Z,98506.56
2022-12-01T17:06:33.276Z,98512.00
2022-12-01T17:08:05.219Z,98515.19
2022-12-01T17:09:36.913Z,98504.53
2022-12-01T17:11:09.267Z,98512.81
2022-12-01T17:12:41.307Z,98506.19
2022-12-01T17:14:12.942Z,98504.88
2022-12-01T17:15:49.692Z,98506.53
2022-12-01T17:17:21.363Z,98503.72
2022-12-01T17:18:53.130Z,98503.09
2022-12-01T17:20:24.904Z,98501.72
2022-12-01T17:21:57.064Z,98508.56
2022-12-01T17:23:29.150Z,98516.47
2022-12-01T17:25:02.348Z,98510.34
2022-12-01T17:26:35.101Z,98510.94
2022-12-01T17:28:06.702Z,98507.19
2022-12-01T17:29:44.559Z,98513.41
2022-12-01T17:31:17.834Z,98517.78
2022-12-01T17:32:49.711Z,98514.50
2022-12-01T17:34:21.470Z,98510.81
2022-12-01T17:35:53.215Z,98515.69
2022-12-01T17:37:24.751Z,98512.28
2022-12-01T17:38:57.325Z,98509.44
2022-12-01T17:40:28.951Z,98516.09
2022-12-01T17:42:00.638Z,98509.34
2022-12-01T17:43:34.368Z,98505.81
2022-12-01T17:45:06.814Z,98507.78
2022-12-01T17:46:38.623Z,98514.63
2022-12-01T17:50:15.089Z,98516.78
2022-12-01T17:51:46.812Z,98510.28
2022-12-01T17:53:18.606Z,98511.38
2022-12-01T17:54:50.536Z,98514.31
2022-12-01T17:56:22.330Z,98510.66
2022-12-01T17:57:53.909Z,98517.94
2022-12-01T17:59:25.816Z,98518.16
2022-12-01T18:00:57.442Z,98514.34
2022-12-01T18:02:29.096Z,98520.81
2022-12-01T18:04:00.969Z,98517.38
2022-12-01T18:05:32.690Z,98524.63
2022-12-01T18:07:04.352Z,98515.41
2022-12-01T18:08:37.379Z,98515.41
2022-12-01T18:10:09.379Z,98512.66
2022-12-01T18:11:41.152Z,98514.13
2022-12-01T18:13:12.751Z,98509.56
2022-12-01T18:14:44.347Z,98508.72
2022-12-01T18:16:19.721Z,98510.59
2022-12-01T18:17:52.218Z,98513.91
2022-12-01T18:19:23.931Z,98505.91
2022-12-01T18:20:55.686Z,98515.25
2022-12-01T18:22:27.488Z,98509.94
2022-12-01T18:24:02.862Z,98506.31
2022-12-01T18:25:38.705Z,98516.25
2022-12-01T18:27:10.403Z,98510.00
2022-12-01T18:28:42.116Z,98511.75
2022-12-01T18:30:14.570Z,98520.16
2022-12-01T18:31:47.264Z,98506.38
2022-12-01T18:33:18.943Z,98511.44
2022-12-01T18:34:50.807Z,98517.66
2022-12-01T18:36:24.235Z,98517.47
2022-12-01T18:37:55.908Z,98511.28
2022-12-01T18:39:27.567Z,98511.44
2022-12-01T18:40:59.822Z,98517.66
2022-12-01T18:42:32.399Z,98517.84
2022-12-01T18:44:04.848Z,98513.81
2022-12-01T18:45:39.492Z,98521.09
2022-12-01T18:47:11.175Z,98514.16
2022-12-01T18:48:47.582Z,98509.31
2022-12-01T18:50:19.167Z,98510.16
2022-12-01T18:51:51.068Z,98509.88
2022-12-01T18:53:22.646Z,98509.31
2022-12-01T18:54:54.473Z,98505.25
2022-12-01T18:56:26.480Z,98505.09
2022-12-01T18:57:58.068Z,98508.22
2022-12-01T18:59:29.796Z,98505.97
2022-12-01T19:01:02.788Z,98500.81